Time;durP1;ratioP1;P1;durP2;ratioP2;P2;SDS_P1;SDS_P2;PMS_P1;PMS_P2;Temp;Humidity;BMP_temperature;BMP_pressure;BME280_temperature;BME280_humidity;BME280_pressure;Samples;Min_cycle;Max_cycle;Signal;HPM_P1;HPM_P2
2023/12/31 00:01:15;;;;;;;13.73;11.73;;;;;;;5.79;69.14;95851.81;4983239;28;20188;-67
2023/12/31 00:03:41;;;;;;;12.80;11.50;;;;;;;5.70;69.66;95851.25;4966288;28;20197;-68
2023/12/31 00:06:06;;;;;;;15.73;12.83;;;;;;;5.67;69.88;95842.66;4998544;28;20717;-69
2023/12/31 00:08:31;;;;;;;14.57;11.80;;;;;;;5.82;69.64;95843.94;5027696;28;20232;-68
2023/12/31 00:10:57;;;;;;;13.37;11.97;;;;;;;5.79;69.87;95838.81;4994934;28;20729;-69
2023/12/31 00:13:22;;;;;;;15.03;12.20;;;;;;;5.80;69.77;95833.56;4963508;28;20279;-69
2023/12/31 00:15:47;;;;;;;14.80;12.47;;;;;;;5.85;69.21;95843.81;4977702;28;20209;-68
2023/12/31 00:18:13;;;;;;;14.67;11.97;;;;;;;5.78;69.58;95837.13;4996972;28;20173;-69
2023/12/31 00:20:38;;;;;;;13.03;11.63;;;;;;;5.79;70.06;95825.78;5012950;28;20178;-68
2023/12/31 00:23:04;;;;;;;16.20;12.47;;;;;;;5.73;69.99;95830.31;5042611;28;20892;-69
2023/12/31 00:25:29;;;;;;;26.50;14.77;;;;;;;5.71;69.84;95820.84;4976224;28;20563;-69
2023/12/31 00:27:54;;;;;;;14.20;12.40;;;;;;;5.72;69.92;95826.00;4967327;28;20189;-69
2023/12/31 00:30:21;;;;;;;17.27;13.03;;;;;;;5.60;70.19;95826.44;4989213;28;20210;-70
2023/12/31 00:32:47;;;;;;;13.23;11.37;;;;;;;5.72;69.55;95820.81;5004336;28;20205;-68
2023/12/31 00:35:13;;;;;;;15.33;12.33;;;;;;;5.69;69.18;95817.44;4984468;28;20461;-67
2023/12/31 00:37:39;;;;;;;14.47;12.00;;;;;;;5.68;69.21;95814.00;4956569;28;20231;-68
2023/12/31 00:40:05;;;;;;;14.10;10.67;;;;;;;5.63;68.95;95813.31;4976413;28;20445;-68
2023/12/31 00:42:31;;;;;;;14.53;11.47;;;;;;;5.49;69.62;95816.38;4965985;28;20211;-68
2023/12/31 00:44:56;;;;;;;15.03;10.60;;;;;;;5.64;69.17;95815.00;4997884;28;20467;-69
2023/12/31 00:47:22;;;;;;;17.53;12.20;;;;;;;5.65;69.05;95810.66;5003728;28;20548;-67
2023/12/31 00:49:47;;;;;;;18.87;11.27;;;;;;;5.63;68.53;95802.91;5019066;28;20197;-70
2023/12/31 00:52:12;;;;;;;13.63;11.60;;;;;;;5.51;68.88;95803.31;5046452;28;20178;-65
2023/12/31 00:54:38;;;;;;;11.63;10.43;;;;;;;5.57;68.52;95799.63;4974574;28;20229;-67
2023/12/31 00:57:03;;;;;;;12.27;10.17;;;;;;;5.51;68.62;95800.72;4978769;28;20193;-68
2023/12/31 00:59:29;;;;;;;13.03;10.50;;;;;;;5.38;68.90;95802.84;4994990;28;20300;-67
2023/12/31 01:01:54;;;;;;;14.70;10.17;;;;;;;5.41;69.07;95802.78;5017065;28;20197;-68
2023/12/31 01:04:20;;;;;;;10.70;8.80;;;;;;;5.41;69.01;95779.34;4997480;28;20201;-68
2023/12/31 01:06:45;;;;;;;16.77;9.20;;;;;;;5.48;68.72;95779.97;4964055;28;20185;-69
2023/12/31 01:09:11;;;;;;;11.80;9.17;;;;;;;5.38;68.87;95776.00;4969992;28;20217;-69
2023/12/31 01:11:36;;;;;;;12.40;9.23;;;;;;;5.27;69.13;95768.56;4983045;28;20189;-67
2023/12/31 01:14:02;;;;;;;16.53;9.30;;;;;;;5.44;68.38;95757.59;5006832;28;20572;-67
2023/12/31 01:16:28;;;;;;;11.50;8.00;;;;;;;5.45;67.95;95754.06;4987902;28;20190;-69
2023/12/31 01:18:53;;;;;;;12.30;9.40;;;;;;;5.44;67.82;95758.44;5023451;28;20281;-67
2023/12/31 01:21:18;;;;;;;13.80;10.00;;;;;;;5.43;66.76;95755.88;4991547;28;20292;-69
2023/12/31 01:23:44;;;;;;;11.80;10.00;;;;;;;5.18;67.37;95761.06;4969709;28;20202;-69
2023/12/31 01:26:09;;;;;;;11.93;9.47;;;;;;;4.83;68.72;95756.09;4990791;28;20193;-68
2023/12/31 01:28:35;;;;;;;12.47;10.57;;;;;;;4.75;68.72;95765.00;5004913;28;20193;-68
2023/12/31 01:31:00;;;;;;;13.00;10.60;;;;;;;4.91;68.04;95758.44;5032116;28;20205;-67
2023/12/31 01:33:25;;;;;;;20.40;11.70;;;;;;;4.81;68.14;95757.03;4996104;28;20595;-68
2023/12/31 01:35:51;;;;;;;14.40;11.07;;;;;;;4.43;69.18;95749.53;4984083;28;20288;-69
2023/12/31 01:38:16;;;;;;;12.77;11.07;;;;;;;4.58;68.46;95747.34;4967853;28;20201;-68
2023/12/31 01:40:51;;;;;;;13.33;11.00;;;;;;;4.57;68.42;95751.69;4960431;28;20197;-69
2023/12/31 01:43:18;;;;;;;12.73;10.70;;;;;;;3.71;70.62;95755.94;5005081;28;20178;-69
2023/12/31 01:45:43;;;;;;;13.50;10.97;;;;;;;3.88;70.37;95740.75;4993836;28;20798;-68
2023/12/31 01:48:09;;;;;;;13.77;10.80;;;;;;;3.71;71.09;95751.59;5034707;28;20441;-69
2023/12/31 01:50:34;;;;;;;13.70;11.10;;;;;;;3.50;70.81;95745.25;4966543;28;20280;-68
2023/12/31 01:53:00;;;;;;;17.07;11.17;;;;;;;3.57;70.67;95744.19;4991181;28;20216;-69
2023/12/31 01:55:26;;;;;;;11.90;10.70;;;;;;;3.66;71.43;95734.44;4976671;28;20232;-69
2023/12/31 01:57:51;;;;;;;16.83;11.37;;;;;;;3.67;70.41;95734.41;4992296;28;20186;-69
2023/12/31 02:00:19;;;;;;;13.83;10.20;;;;;;;3.86;69.78;95737.34;5043269;28;20304;-69
2023/12/31 02:02:47;;;;;;;12.43;10.20;;;;;;;3.75;69.87;95740.22;4972129;28;20186;-69
2023/12/31 02:05:12;;;;;;;13.43;10.47;;;;;;;3.92;69.68;95731.13;4977063;28;20487;-68
2023/12/31 02:07:38;;;;;;;14.10;9.50;;;;;;;3.82;69.50;95735.72;4985560;28;20530;-67
2023/12/31 02:10:04;;;;;;;14.90;9.67;;;;;;;4.02;68.81;95727.38;5016468;28;20174;-67
2023/12/31 02:12:30;;;;;;;11.17;10.07;;;;;;;4.18;69.00;95722.56;5029474;28;20641;-68
2023/12/31 02:14:55;;;;;;;11.90;9.93;;;;;;;4.08;69.36;95716.81;4999834;28;20477;-68
2023/12/31 02:17:20;;;;;;;12.40;9.20;;;;;;;4.18;68.78;95707.00;4977568;28;20185;-69
2023/12/31 02:19:46;;;;;;;11.57;10.40;;;;;;;4.23;68.35;95711.16;4979950;28;20284;-69
2023/12/31 02:22:11;;;;;;;11.47;10.27;;;;;;;4.09;68.06;95708.13;4993150;28;20243;-68
2023/12/31 02:24:50;;;;;;;11.77;10.40;;;;;;;4.17;68.35;95706.16;4963783;28;20975;-68
2023/12/31 02:27:16;;;;;;;12.63;10.00;;;;;;;4.06;68.37;95708.22;5011563;28;20475;-68
2023/12/31 02:29:41;;;;;;;11.37;9.40;;;;;;;4.12;68.36;95696.81;5042683;28;20525;-68
2023/12/31 02:32:07;;;;;;;11.73;10.57;;;;;;;4.13;68.79;95690.69;4965942;28;20186;-69
2023/12/31 02:34:32;;;;;;;14.00;11.60;;;;;;;4.18;68.17;95697.47;4970488;28;20756;-69
2023/12/31 02:36:58;;;;;;;9.97;9.17;;;;;;;4.10;68.47;95685.63;4982287;28;20693;-69
2023/12/31 02:39:25;;;;;;;12.77;10.10;;;;;;;4.05;68.47;95680.56;4982240;28;20178;-68
2023/12/31 02:41:50;;;;;;;11.20;10.10;;;;;;;4.10;68.19;95681.25;4961458;28;20231;-69
2023/12/31 02:44:16;;;;;;;11.10;9.83;;;;;;;3.78;69.04;95682.19;5021538;28;20522;-68
2023/12/31 02:46:42;;;;;;;12.93;10.30;;;;;;;3.53;70.32;95682.06;4979559;28;20801;-68
2023/12/31 02:49:10;;;;;;;11.13;10.03;;;;;;;3.45;70.71;95674.50;4959160;28;20451;-68
2023/12/31 02:51:36;;;;;;;11.00;9.60;;;;;;;3.30;70.34;95665.38;4988482;28;20192;-68
2023/12/31 02:54:02;;;;;;;11.70;9.93;;;;;;;3.24;70.69;95664.72;4998292;28;20477;-69
2023/12/31 02:56:27;;;;;;;10.53;9.40;;;;;;;3.44;69.62;95659.81;5021018;28;20263;-67
2023/12/31 02:58:53;;;;;;;10.80;9.73;;;;;;;3.36;70.17;95660.03;4989768;28;20197;-67
2023/12/31 03:01:18;;;;;;;11.40;10.20;;;;;;;3.53;69.66;95653.53;4954292;28;20178;-68
2023/12/31 03:03:44;;;;;;;11.67;10.47;;;;;;;3.62;69.11;95652.44;4963524;28;20710;-69
2023/12/31 03:06:14;;;;;;;12.70;11.47;;;;;;;3.61;69.30;95643.75;5011120;28;20182;-70
2023/12/31 03:08:40;;;;;;;12.83;10.37;;;;;;;3.62;68.97;95645.47;4964540;28;20182;-68
2023/12/31 03:11:08;;;;;;;15.80;11.53;;;;;;;3.79;69.01;95648.44;5038325;28;20428;-69
2023/12/31 03:13:34;;;;;;;10.93;9.80;;;;;;;3.80;69.39;95637.16;4967489;28;20946;-68
2023/12/31 03:16:06;;;;;;;9.57;8.60;;;;;;;3.95;68.68;95640.19;4979367;28;20448;-69
2023/12/31 03:18:32;;;;;;;9.80;8.50;;;;;;;3.92;69.39;95630.75;4968392;28;20606;-68
2023/12/31 03:20:57;;;;;;;11.17;10.07;;;;;;;4.07;69.40;95619.06;5004858;28;20957;-67
2023/12/31 03:23:23;;;;;;;10.87;9.13;;;;;;;4.08;69.58;95622.50;5027535;28;20424;-68
2023/12/31 03:25:48;;;;;;;11.50;10.40;;;;;;;3.96;69.89;95608.16;5035962;28;20181;-68
2023/12/31 03:28:14;;;;;;;12.63;9.87;;;;;;;4.07;70.61;95605.22;4998649;28;20181;-68
2023/12/31 03:30:39;;;;;;;13.13;10.50;;;;;;;3.98;71.11;95607.19;4975032;28;20652;-69
2023/12/31 03:33:04;;;;;;;16.40;9.80;;;;;;;3.99;70.71;95595.06;5003366;28;20178;-67
2023/12/31 03:35:30;;;;;;;10.73;9.50;;;;;;;3.96;70.69;95590.81;5009891;28;20210;-69
2023/12/31 03:37:55;;;;;;;14.20;10.23;;;;;;;3.91;70.97;95591.88;5031761;28;20645;-69
2023/12/31 03:40:23;;;;;;;12.70;9.83;;;;;;;3.90;71.06;95591.03;5031622;28;20177;-68
2023/12/31 03:42:49;;;;;;;11.23;9.73;;;;;;;3.96;71.13;95585.63;4968488;28;20357;-69
2023/12/31 03:45:15;;;;;;;11.70;8.97;;;;;;;4.06;70.81;95577.56;4988099;28;20535;-67
2023/12/31 03:47:40;;;;;;;12.10;10.33;;;;;;;3.73;72.07;95588.06;4996890;28;20197;-67
2023/12/31 03:50:06;;;;;;;13.77;11.80;;;;;;;3.77;72.28;95576.72;5004511;28;20182;-68
2023/12/31 03:52:32;;;;;;;17.43;10.10;;;;;;;3.30;73.62;95586.75;5025781;28;20263;-70
2023/12/31 03:54:58;;;;;;;19.90;10.20;;;;;;;3.32;73.21;95585.81;4968880;28;20496;-68
2023/12/31 03:57:24;;;;;;;16.67;9.70;;;;;;;3.31;72.61;95589.31;4977171;28;20476;-68
2023/12/31 03:59:49;;;;;;;12.43;10.20;;;;;;;3.53;72.24;95586.94;4976497;28;20186;-68
2023/12/31 04:02:16;;;;;;;11.53;10.17;;;;;;;3.46;71.83;95580.22;5021022;28;20182;-68
2023/12/31 04:04:42;;;;;;;13.30;9.67;;;;;;;3.32;71.93;95577.19;5005456;28;20345;-68
2023/12/31 04:07:07;;;;;;;14.00;9.23;;;;;;;3.01;73.18;95572.00;4997307;28;20572;-67
2023/12/31 04:09:33;;;;;;;10.07;9.00;;;;;;;2.47;75.20;95568.25;4966417;28;20194;-67
2023/12/31 04:11:58;;;;;;;13.50;9.97;;;;;;;3.12;73.99;95565.63;4986322;28;20189;-67
2023/12/31 04:14:23;;;;;;;15.80;9.63;;;;;;;3.44;72.96;95557.81;5005549;28;20213;-68
2023/12/31 04:16:49;;;;;;;12.53;10.10;;;;;;;3.56;71.83;95560.03;4994529;28;20541;-69
2023/12/31 04:19:14;;;;;;;15.07;10.77;;;;;;;3.23;73.32;95559.28;5022933;28;20193;-67
2023/12/31 04:21:41;;;;;;;14.63;10.33;;;;;;;3.02;74.22;95556.41;4981000;28;20247;-68
2023/12/31 04:24:06;;;;;;;14.30;10.77;;;;;;;3.47;72.24;95558.56;4977279;28;20847;-70
2023/12/31 04:26:32;;;;;;;12.70;10.50;;;;;;;3.39;72.67;95550.16;4985788;28;20447;-69
2023/12/31 04:28:57;;;;;;;20.07;11.60;;;;;;;3.49;72.37;95528.25;5008125;28;20217;-67
2023/12/31 04:31:23;;;;;;;20.87;11.73;;;;;;;3.60;72.72;95527.94;5032331;28;20726;-68
2023/12/31 04:33:48;;;;;;;18.50;10.83;;;;;;;3.49;72.70;95532.59;5029122;28;20353;-69
2023/12/31 04:36:14;;;;;;;13.60;11.00;;;;;;;3.51;73.51;95529.06;4962918;28;20262;-69
2023/12/31 04:38:39;;;;;;;19.23;11.20;;;;;;;3.63;72.93;95527.81;4969719;28;20193;-68
2023/12/31 04:41:05;;;;;;;19.07;11.40;;;;;;;3.60;72.02;95522.75;4999814;28;20203;-69
2023/12/31 04:43:31;;;;;;;23.40;11.40;;;;;;;3.68;71.95;95506.94;5013017;28;20174;-68
2023/12/31 04:45:56;;;;;;;17.20;11.50;;;;;;;3.69;71.80;95500.88;5027576;28;20555;-67
2023/12/31 04:48:22;;;;;;;18.20;11.37;;;;;;;3.76;71.07;95510.16;5000049;28;20522;-68
2023/12/31 04:50:47;;;;;;;27.97;12.10;;;;;;;2.88;74.06;95515.34;4964841;28;20739;-68
2023/12/31 04:53:14;;;;;;;21.73;13.03;;;;;;;3.01;74.17;95496.84;4979004;28;21723;-68
2023/12/31 04:55:40;;;;;;;19.13;12.17;;;;;;;3.02;74.34;95501.13;4994527;28;20220;-68
2023/12/31 04:58:05;;;;;;;21.53;11.43;;;;;;;2.58;75.72;95498.91;5002417;28;20473;-70
2023/12/31 05:00:30;;;;;;;26.53;12.30;;;;;;;2.58;75.62;95493.72;5001130;28;20186;-70
2023/12/31 05:02:56;;;;;;;19.60;12.30;;;;;;;2.67;75.42;95479.66;4956990;28;20180;-68
2023/12/31 05:05:22;;;;;;;50.43;12.33;;;;;;;2.20;75.80;95472.28;4963149;28;20755;-70
2023/12/31 05:07:48;;;;;;;19.60;11.90;;;;;;;2.33;76.83;95465.88;4963790;28;20188;-69
2023/12/31 05:10:13;;;;;;;19.60;11.90;;;;;;;2.20;76.77;95468.84;4958404;28;20495;-68
2023/12/31 05:12:38;;;;;;;23.10;12.97;;;;;;;2.31;76.98;95465.06;4966142;28;20184;-68
2023/12/31 05:15:04;;;;;;;19.23;11.80;;;;;;;2.65;76.37;95455.56;4966449;28;20687;-69
2023/12/31 05:17:29;;;;;;;18.90;12.73;;;;;;;2.74;74.84;95456.13;4963611;28;20189;-69
2023/12/31 05:19:55;;;;;;;15.23;11.40;;;;;;;3.02;73.83;95447.53;4972384;28;20189;-67
2023/12/31 05:22:20;;;;;;;23.07;11.30;;;;;;;2.91;73.37;95454.81;4967622;28;20676;-67
2023/12/31 05:24:46;;;;;;;12.17;10.50;;;;;;;2.91;72.82;95452.22;4997904;28;20213;-68
2023/12/31 05:27:11;;;;;;;12.97;10.27;;;;;;;2.56;73.84;95450.63;5024829;28;20174;-68
2023/12/31 05:29:36;;;;;;;15.43;10.80;;;;;;;2.91;73.27;95434.91;4980201;28;20193;-69
2023/12/31 05:32:02;;;;;;;17.83;12.67;;;;;;;3.01;72.37;95448.44;4949943;28;20281;-69
2023/12/31 05:34:27;;;;;;;11.50;10.33;;;;;;;3.21;71.33;95441.81;4967130;28;20228;-68
2023/12/31 05:36:53;;;;;;;12.20;10.00;;;;;;;2.99;72.26;95437.28;4984482;28;20204;-69
2023/12/31 05:39:18;;;;;;;11.73;9.77;;;;;;;3.06;71.54;95433.59;4998370;28;20210;-68
2023/12/31 05:41:43;;;;;;;14.80;10.30;;;;;;;3.14;71.54;95434.25;4990391;28;20196;-68
2023/12/31 05:44:09;;;;;;;12.10;9.87;;;;;;;3.01;71.87;95435.50;4978034;28;20309;-69
2023/12/31 05:46:34;;;;;;;12.50;10.77;;;;;;;3.26;71.59;95437.34;4963312;28;20186;-69
2023/12/31 05:48:59;;;;;;;17.57;11.00;;;;;;;2.92;72.36;95436.59;4965783;28;20734;-69
2023/12/31 05:51:25;;;;;;;20.43;11.30;;;;;;;2.49;74.55;95437.00;4969077;28;20195;-67
2023/12/31 05:53:50;;;;;;;16.57;13.00;;;;;;;2.70;73.82;95445.91;4996474;28;20201;-69
2023/12/31 05:56:15;;;;;;;22.57;11.50;;;;;;;2.59;74.60;95435.84;5004170;28;20185;-68
2023/12/31 05:58:42;;;;;;;27.70;12.50;;;;;;;2.69;73.64;95431.25;4979902;28;20621;-69
2023/12/31 06:01:08;;;;;;;20.83;11.43;;;;;;;2.62;73.82;95437.50;4967970;28;20211;-68
2023/12/31 06:03:33;;;;;;;23.70;11.57;;;;;;;2.22;75.25;95434.28;4987383;28;20476;-68
2023/12/31 06:05:59;;;;;;;38.63;11.70;;;;;;;1.65;77.00;95427.97;4967019;28;21074;-68
2023/12/31 06:08:25;;;;;;;13.10;9.37;;;;;;;1.45;78.26;95438.78;4982798;28;20186;-69
2023/12/31 06:10:50;;;;;;;11.47;9.53;;;;;;;2.16;75.81;95437.00;4998704;28;20444;-66
2023/12/31 06:13:16;;;;;;;12.57;10.50;;;;;;;2.31;74.78;95423.66;5032404;28;20186;-69
2023/12/31 06:15:41;;;;;;;14.13;11.33;;;;;;;2.27;74.70;95413.44;5028971;28;20297;-69
2023/12/31 06:18:08;;;;;;;13.53;10.87;;;;;;;2.27;75.24;95406.53;4964125;28;20629;-67
2023/12/31 06:20:33;;;;;;;14.03;10.90;;;;;;;2.66;73.93;95414.03;4978969;28;20498;-69
2023/12/31 06:22:58;;;;;;;12.83;11.40;;;;;;;2.69;73.82;95419.16;5000762;28;20194;-68
2023/12/31 06:25:24;;;;;;;15.17;10.27;;;;;;;2.30;75.18;95421.97;5025702;28;20209;-69
2023/12/31 06:27:50;;;;;;;18.17;10.43;;;;;;;2.49;74.13;95411.94;4995736;28;20250;-69
2023/12/31 06:30:15;;;;;;;13.70;11.40;;;;;;;2.77;73.35;95412.91;4950198;28;20196;-70
2023/12/31 06:32:41;;;;;;;13.20;10.80;;;;;;;2.84;73.39;95411.84;4964621;28;20547;-68
2023/12/31 06:35:07;;;;;;;16.23;11.20;;;;;;;2.32;74.23;95420.19;4975695;28;20206;-68
2023/12/31 06:37:32;;;;;;;17.40;10.87;;;;;;;2.03;75.32;95427.88;4979109;28;20200;-68
2023/12/31 06:39:58;;;;;;;14.07;11.70;;;;;;;2.16;74.83;95425.81;5006468;28;20453;-69
2023/12/31 06:42:23;;;;;;;27.77;11.23;;;;;;;1.69;76.35;95413.22;5033922;28;20192;-69
2023/12/31 06:44:49;;;;;;;22.23;12.37;;;;;;;1.94;76.13;95403.09;5001197;28;20289;-69
2023/12/31 06:47:16;;;;;;;17.00;11.00;;;;;;;1.95;76.01;95402.19;4965296;28;20182;-67
2023/12/31 06:49:41;;;;;;;17.80;10.53;;;;;;;1.81;76.00;95406.88;4980668;28;20174;-67
2023/12/31 06:52:07;;;;;;;18.50;10.73;;;;;;;2.38;73.99;95407.97;5007407;28;20666;-69
2023/12/31 06:54:32;;;;;;;15.40;11.07;;;;;;;2.33;73.69;95410.66;5023777;28;20276;-70
2023/12/31 06:56:58;;;;;;;12.20;10.83;;;;;;;2.29;74.07;95404.75;5000644;28;20652;-68
2023/12/31 06:59:23;;;;;;;18.27;11.13;;;;;;;2.09;74.48;95417.38;4986269;28;20213;-68
2023/12/31 07:01:49;;;;;;;12.57;9.70;;;;;;;2.46;73.26;95414.63;4965275;28;20212;-69
2023/12/31 07:04:14;;;;;;;13.27;10.30;;;;;;;2.33;73.73;95401.16;4979924;28;20202;-67
2023/12/31 07:06:39;;;;;;;15.10;10.33;;;;;;;1.79;75.24;95408.66;4978335;28;20268;-68
2023/12/31 07:09:05;;;;;;;11.23;10.17;;;;;;;2.11;74.95;95393.13;4973583;28;20185;-68
2023/12/31 07:11:31;;;;;;;10.97;9.63;;;;;;;1.92;75.59;95396.28;4993127;28;20759;-69
2023/12/31 07:13:56;;;;;;;16.90;11.03;;;;;;;2.47;73.69;95411.13;4961470;28;20236;-67
2023/12/31 07:16:21;;;;;;;13.73;11.23;;;;;;;2.39;73.82;95389.81;4958568;28;20209;-68
2023/12/31 07:18:47;;;;;;;14.10;10.30;;;;;;;2.67;73.29;95402.81;4966263;28;20198;-68
2023/12/31 07:21:21;;;;;;;12.70;10.10;;;;;;;2.79;72.65;95401.59;4996196;28;20181;-68
2023/12/31 07:23:46;;;;;;;14.00;11.03;;;;;;;2.75;73.36;95380.09;5011327;28;20237;-69
2023/12/31 07:26:12;;;;;;;13.60;10.57;;;;;;;2.94;72.25;95400.28;5031910;28;20475;-68
2023/12/31 07:28:37;;;;;;;14.73;10.57;;;;;;;2.97;72.31;95403.63;4981620;28;20189;-68
2023/12/31 07:31:03;;;;;;;12.80;10.70;;;;;;;2.83;73.32;95381.63;5060670;28;20417;-69
2023/12/31 07:33:28;;;;;;;13.17;11.80;;;;;;;2.75;73.52;95395.66;5076169;28;20691;-70
2023/12/31 07:35:54;;;;;;;14.57;11.50;;;;;;;2.83;73.38;95397.16;5071618;28;20186;-70
2023/12/31 07:38:19;;;;;;;12.50;10.57;;;;;;;3.09;72.77;95391.19;5080826;28;20983;-68
2023/12/31 07:40:45;;;;;;;13.13;10.20;;;;;;;3.13;72.21;95393.66;5084619;28;20431;-68
2023/12/31 07:43:10;;;;;;;13.87;11.17;;;;;;;2.65;73.78;95399.41;5074849;28;20185;-70
2023/12/31 07:45:36;;;;;;;13.40;10.20;;;;;;;2.90;73.43;95390.91;5076188;28;20287;-70
2023/12/31 07:48:01;;;;;;;14.63;9.97;;;;;;;2.98;73.00;95401.91;5071102;28;20189;-69
2023/12/31 07:50:26;;;;;;;13.03;10.43;;;;;;;3.07;72.98;95404.22;5076609;28;20611;-70
2023/12/31 07:52:52;;;;;;;12.60;11.30;;;;;;;3.18;72.71;95403.88;5078216;28;20272;-70
2023/12/31 07:55:18;;;;;;;14.03;10.70;;;;;;;2.83;73.37;95408.38;5079469;28;20289;-70
2023/12/31 07:57:43;;;;;;;21.67;12.10;;;;;;;3.10;72.81;95419.66;5065883;28;20174;-70
2023/12/31 08:00:09;;;;;;;14.50;12.27;;;;;;;3.23;72.46;95419.28;5075685;28;20475;-69
2023/12/31 08:02:35;;;;;;;20.43;10.60;;;;;;;3.48;71.59;95416.78;5076329;28;20173;-70
2023/12/31 08:05:00;;;;;;;12.27;10.33;;;;;;;3.65;71.48;95421.41;5072855;28;20529;-70
2023/12/31 08:07:26;;;;;;;14.40;10.30;;;;;;;3.78;70.67;95417.50;5081571;28;20193;-70
2023/12/31 08:09:51;;;;;;;16.47;10.30;;;;;;;3.88;70.98;95418.91;5069371;28;20243;-69
2023/12/31 08:12:16;;;;;;;15.50;10.10;;;;;;;3.94;69.93;95415.25;5069983;28;20182;-70
2023/12/31 08:14:42;;;;;;;15.47;9.70;;;;;;;3.80;71.15;95407.94;5068143;28;20234;-69
2023/12/31 08:17:07;;;;;;;16.50;10.90;;;;;;;3.93;70.13;95419.59;5069336;28;20678;-70
2023/12/31 08:19:33;;;;;;;19.73;12.70;;;;;;;3.90;70.74;95426.63;5074905;28;20181;-70
2023/12/31 08:21:59;;;;;;;24.33;11.70;;;;;;;4.01;69.87;95435.75;5077603;28;20208;-69
2023/12/31 08:24:25;;;;;;;18.77;11.47;;;;;;;3.87;70.54;95443.16;5072344;28;20283;-69
2023/12/31 08:26:51;;;;;;;13.50;10.43;;;;;;;3.70;70.14;95448.91;5070093;28;20190;-68
2023/12/31 08:29:17;;;;;;;13.30;9.60;;;;;;;3.77;69.45;95446.97;5071755;28;20428;-69
2023/12/31 08:31:48;;;;;;;14.13;10.60;;;;;;;3.76;69.80;95440.09;5073627;28;20930;-69
2023/12/31 08:34:13;;;;;;;11.53;10.30;;;;;;;3.74;69.52;95444.47;5078774;28;20201;-67
2023/12/31 08:36:38;;;;;;;12.43;10.73;;;;;;;3.64;69.96;95440.47;5080621;28;20443;-69
2023/12/31 08:39:04;;;;;;;14.77;11.50;;;;;;;3.70;69.53;95456.69;5064821;28;20964;-69
2023/12/31 08:41:29;;;;;;;13.53;11.73;;;;;;;3.79;69.41;95451.19;5065567;28;20209;-68
2023/12/31 08:43:55;;;;;;;14.60;11.37;;;;;;;3.80;69.94;95446.84;5075029;28;20248;-70
2023/12/31 08:46:20;;;;;;;13.33;10.10;;;;;;;3.64;69.53;95440.47;5060776;28;20269;-68
2023/12/31 08:48:45;;;;;;;11.43;10.00;;;;;;;3.63;69.69;95442.22;5078801;28;20199;-68
2023/12/31 08:51:11;;;;;;;11.70;9.90;;;;;;;3.46;70.17;95441.91;5076701;28;20202;-67
2023/12/31 08:53:37;;;;;;;12.40;9.77;;;;;;;3.42;70.76;95467.09;5073576;28;20751;-68
2023/12/31 08:56:03;;;;;;;10.97;9.30;;;;;;;3.68;69.97;95468.00;5074919;28;20169;-68
2023/12/31 08:58:29;;;;;;;9.93;8.60;;;;;;;3.78;69.64;95462.50;5069818;28;20436;-68
2023/12/31 09:00:55;;;;;;;10.43;8.33;;;;;;;3.71;70.15;95465.31;5074576;28;20193;-68
2023/12/31 09:03:21;;;;;;;10.03;8.70;;;;;;;3.78;69.83;95453.84;5073223;28;20427;-68
2023/12/31 09:05:46;;;;;;;14.30;8.70;;;;;;;3.64;70.18;95453.44;5066096;28;20420;-67
2023/12/31 09:08:11;;;;;;;37.67;12.53;;;;;;;3.78;69.71;95457.31;5063448;28;20186;-67
2023/12/31 09:10:38;;;;;;;13.23;9.07;;;;;;;3.70;70.52;95461.03;5067651;28;20250;-69
2023/12/31 09:13:03;;;;;;;10.63;9.53;;;;;;;3.57;70.82;95450.22;5064834;28;20248;-68
2023/12/31 09:15:29;;;;;;;11.20;10.00;;;;;;;3.60;70.72;95443.16;5065508;28;20440;-71
2023/12/31 09:17:54;;;;;;;10.90;9.80;;;;;;;3.37;71.05;95430.91;5066557;28;20189;-68
2023/12/31 09:20:21;;;;;;;11.70;9.20;;;;;;;3.45;71.86;95424.63;5064310;28;20182;-70
2023/12/31 09:22:50;;;;;;;11.07;9.97;;;;;;;3.48;71.83;95440.13;5064288;28;21022;-66
2023/12/31 09:25:15;;;;;;;11.07;8.83;;;;;;;3.57;71.24;95432.91;5078130;28;20536;-68
2023/12/31 09:27:41;;;;;;;11.50;9.93;;;;;;;3.60;70.98;95418.97;5084073;28;20423;-67
2023/12/31 09:30:07;;;;;;;12.20;9.73;;;;;;;3.57;70.62;95422.53;5073524;28;20181;-67
2023/12/31 09:32:32;;;;;;;13.50;12.00;;;;;;;3.49;70.99;95434.88;5066712;28;20178;-67
2023/12/31 09:34:58;;;;;;;11.30;10.23;;;;;;;3.81;70.90;95439.03;5066033;28;20458;-68
2023/12/31 09:37:24;;;;;;;12.63;9.53;;;;;;;4.08;69.69;95435.56;5075055;28;20221;-67
2023/12/31 09:39:49;;;;;;;14.07;10.00;;;;;;;4.04;69.66;95427.03;5068424;28;20235;-69
2023/12/31 09:42:38;;;;;;;11.90;10.50;;;;;;;4.27;68.44;95426.22;5072267;28;20178;-68
2023/12/31 09:45:07;;;;;;;11.13;9.73;;;;;;;4.31;68.49;95422.63;5068134;28;20210;-67
2023/12/31 09:47:34;;;;;;;10.77;9.47;;;;;;;4.47;67.97;95427.31;5071389;28;20964;-68
2023/12/31 09:50:01;;;;;;;18.90;10.83;;;;;;;4.34;67.63;95422.53;5066404;28;20983;-69
2023/12/31 09:52:29;;;;;;;12.73;10.47;;;;;;;4.44;67.99;95423.03;5065170;28;20585;-68
2023/12/31 09:54:57;;;;;;;12.60;9.87;;;;;;;4.50;67.86;95422.00;5076181;28;20541;-69
2023/12/31 09:57:25;;;;;;;12.03;10.17;;;;;;;4.37;68.38;95417.25;5070284;28;20465;-67
2023/12/31 09:59:54;;;;;;;11.50;10.10;;;;;;;4.42;67.96;95415.31;5071180;28;20425;-70
2023/12/31 10:02:22;;;;;;;12.43;10.10;;;;;;;4.35;68.74;95407.81;5070623;28;20434;-68
2023/12/31 10:04:49;;;;;;;16.23;10.90;;;;;;;4.55;67.62;95417.47;5078566;28;20551;-67
2023/12/31 10:07:15;;;;;;;10.50;9.40;;;;;;;4.63;67.72;95405.03;5073173;28;20458;-71
2023/12/31 10:09:41;;;;;;;12.83;11.53;;;;;;;4.78;67.94;95390.66;5078878;28;20443;-68
2023/12/31 10:12:06;;;;;;;13.90;10.13;;;;;;;4.88;66.87;95392.81;5080666;28;20185;-66
2023/12/31 10:14:32;;;;;;;12.40;10.83;;;;;;;4.93;67.07;95384.84;5075023;28;20272;-67
2023/12/31 10:16:57;;;;;;;13.17;10.70;;;;;;;4.57;68.07;95379.28;5066062;28;20636;-68
2023/12/31 10:19:23;;;;;;;13.93;10.03;;;;;;;4.87;68.21;95387.72;5071882;28;20181;-68
2023/12/31 10:21:48;;;;;;;11.43;10.23;;;;;;;4.74;67.77;95363.91;5078989;28;20269;-68
2023/12/31 10:24:14;;;;;;;13.00;10.23;;;;;;;4.80;68.18;95358.50;5071425;28;20205;-69
2023/12/31 10:26:40;;;;;;;12.83;10.27;;;;;;;4.92;67.55;95356.34;5085946;28;20203;-70
2023/12/31 10:29:05;;;;;;;12.60;9.90;;;;;;;4.93;67.63;95345.03;5078237;28;20253;-70
2023/12/31 10:31:31;;;;;;;14.77;11.80;;;;;;;5.24;66.51;95344.66;5078935;28;20633;-68
2023/12/31 10:34:12;;;;;;;10.53;9.43;;;;;;;4.99;67.88;95348.22;5065887;28;20198;-68
2023/12/31 10:36:37;;;;;;;11.50;10.33;;;;;;;4.96;68.14;95339.69;5081061;28;20547;-68
2023/12/31 10:39:03;;;;;;;12.53;10.67;;;;;;;4.94;68.79;95331.09;5076088;28;20566;-68
2023/12/31 10:41:34;;;;;;;15.00;11.60;;;;;;;5.00;69.06;95328.28;5074845;28;20181;-70
2023/12/31 10:44:03;;;;;;;12.03;9.53;;;;;;;5.15;68.05;95325.09;5078618;28;20233;-69
2023/12/31 10:46:30;;;;;;;14.10;10.57;;;;;;;5.39;67.29;95309.41;5081021;28;20413;-67
2023/12/31 10:49:01;;;;;;;13.13;9.90;;;;;;;5.46;67.40;95310.84;5081836;28;21013;-69
2023/12/31 10:51:27;;;;;;;12.43;10.07;;;;;;;5.45;67.46;95298.72;5076398;28;20818;-69
2023/12/31 10:54:05;;;;;;;10.83;9.50;;;;;;;5.56;67.58;95295.69;5074711;28;20444;-70
2023/12/31 10:56:32;;;;;;;12.90;10.63;;;;;;;5.55;67.72;95274.03;5073438;28;20230;-69
2023/12/31 10:58:58;;;;;;;28.00;11.90;;;;;;;5.77;66.41;95279.16;5075205;28;20910;-70
2023/12/31 11:01:25;;;;;;;14.30;11.80;;;;;;;5.89;66.67;95281.22;5085842;28;20403;-68
2023/12/31 11:03:52;;;;;;;16.17;11.40;;;;;;;6.14;65.79;95254.09;5077669;28;20456;-68
2023/12/31 11:06:18;;;;;;;16.87;12.03;;;;;;;6.30;65.39;95254.28;5071847;28;20938;-70
2023/12/31 11:08:47;;;;;;;15.20;11.60;;;;;;;5.90;66.21;95259.47;5080797;28;20431;-69
2023/12/31 11:11:14;;;;;;;17.60;13.30;;;;;;;6.52;65.20;95247.19;5079132;28;20200;-70
2023/12/31 11:13:46;;;;;;;13.87;11.57;;;;;;;6.49;64.83;95255.13;5087084;28;20428;-69
2023/12/31 11:16:53;;;;;;;12.83;9.40;;;;;;;6.42;65.03;95234.63;5077977;28;20467;-70
2023/12/31 11:19:52;;;;;;;11.40;9.90;;;;;;;7.08;62.65;95219.28;5070777;28;20430;-70
2023/12/31 11:22:55;;;;;;;20.73;10.77;;;;;;;7.12;63.07;95204.34;5078323;28;20994;-70